createdAt,value
2023-06-17T00:02:03.053Z,15.81
2023-06-17T00:04:30.595Z,16.05
2023-06-17T00:06:58.185Z,16.02
2023-06-17T00:09:27.478Z,15.86
2023-06-17T00:11:57.795Z,15.78
2023-06-17T00:14:26.323Z,15.90
2023-06-17T00:16:55.442Z,15.93
2023-06-17T00:19:23.785Z,16.05
2023-06-17T00:21:51.416Z,16.10
2023-06-17T00:24:19.081Z,16.20
2023-06-17T00:26:46.814Z,16.19
2023-06-17T00:29:16.398Z,16.24
2023-06-17T00:31:43.926Z,16.34
2023-06-17T00:34:12.806Z,16.35
2023-06-17T00:36:40.357Z,16.48
2023-06-17T00:39:08.102Z,16.57
2023-06-17T00:41:35.683Z,16.61
2023-06-17T00:44:04.033Z,16.62
2023-06-17T00:46:37.762Z,16.60
2023-06-17T00:49:06.773Z,16.64
2023-06-17T00:51:35.920Z,16.74
2023-06-17T00:54:03.737Z,16.41
2023-06-17T00:56:32.788Z,16.61
2023-06-17T00:59:03.083Z,16.49
2023-06-17T01:01:30.922Z,16.34
2023-06-17T01:04:00.280Z,16.33
2023-06-17T01:06:51.693Z,16.39
2023-06-17T01:09:25.325Z,16.09
2023-06-17T01:11:57.609Z,15.99
2023-06-17T01:14:26.879Z,16.34
2023-06-17T01:16:55.773Z,16.59
2023-06-17T01:19:26.269Z,16.75
2023-06-17T01:21:55.870Z,16.84
2023-06-17T01:24:30.960Z,16.95
2023-06-17T01:27:01.187Z,16.98
2023-06-17T01:29:30.412Z,16.89
2023-06-17T01:31:58.950Z,16.89
2023-06-17T01:34:34.037Z,16.96
2023-06-17T01:37:05.380Z,16.88
2023-06-17T01:39:37.855Z,16.85
2023-06-17T01:42:09.054Z,16.70
2023-06-17T01:44:38.262Z,16.60
2023-06-17T01:47:10.414Z,16.64
2023-06-17T01:49:38.378Z,16.72
2023-06-17T01:52:08.115Z,16.43
2023-06-17T01:54:37.137Z,16.33
2023-06-17T01:57:05.170Z,16.41
2023-06-17T01:59:32.690Z,16.50
2023-06-17T02:02:00.388Z,16.35
2023-06-17T02:04:27.914Z,15.96
2023-06-17T02:06:56.132Z,16.14
2023-06-17T02:09:23.683Z,16.08
2023-06-17T02:11:52.636Z,16.08
2023-06-17T02:14:20.257Z,15.87
2023-06-17T02:16:48.642Z,15.67
2023-06-17T02:19:16.802Z,15.91
2023-06-17T02:21:44.795Z,16.01
2023-06-17T02:24:12.713Z,16.00
2023-06-17T02:26:40.667Z,16.18
2023-06-17T02:29:09.577Z,16.13
2023-06-17T02:31:37.175Z,15.88
2023-06-17T02:34:04.896Z,16.04
2023-06-17T02:36:32.465Z,16.04
2023-06-17T02:39:00.996Z,15.93
2023-06-17T02:41:28.538Z,15.93
2023-06-17T02:43:56.086Z,15.62
2023-06-17T02:46:25.340Z,15.65
2023-06-17T02:48:52.943Z,15.79
2023-06-17T02:51:21.250Z,15.88
2023-06-17T02:53:48.799Z,15.68
2023-06-17T02:56:16.406Z,15.80
2023-06-17T02:58:44.669Z,15.79
2023-06-17T03:01:13.935Z,15.40
2023-06-17T03:03:43.117Z,15.28
2023-06-17T03:06:10.756Z,15.12
2023-06-17T03:08:40.276Z,14.64
2023-06-17T03:11:07.818Z,14.94
2023-06-17T03:13:35.542Z,15.19
2023-06-17T03:16:03.839Z,15.22
2023-06-17T03:18:31.384Z,14.94
2023-06-17T03:21:00.257Z,14.97
2023-06-17T03:23:27.797Z,14.82
2023-06-17T03:25:56.082Z,14.78
2023-06-17T03:28:23.647Z,14.74
2023-06-17T03:30:51.680Z,14.82
2023-06-17T03:33:19.213Z,14.90
2023-06-17T03:35:46.752Z,14.98
2023-06-17T03:38:15.599Z,14.98
2023-06-17T03:40:43.122Z,14.81
2023-06-17T03:43:10.647Z,14.83
2023-06-17T03:45:38.221Z,14.91
2023-06-17T03:48:06.214Z,14.98
2023-06-17T03:50:33.819Z,14.88
2023-06-17T03:53:01.342Z,14.93
2023-06-17T03:55:30.332Z,15.02
2023-06-17T03:57:57.924Z,14.97
2023-06-17T04:00:25.425Z,14.98
2023-06-17T04:02:53.060Z,15.02
2023-06-17T04:05:21.435Z,15.08
2023-06-17T04:07:50.031Z,14.91
2023-06-17T04:10:17.634Z,14.67
2023-06-17T04:12:46.509Z,14.80
2023-06-17T04:15:14.138Z,15.02
2023-06-17T04:17:41.693Z,15.05
2023-06-17T04:20:12.303Z,15.19
2023-06-17T04:22:40.627Z,15.31
2023-06-17T04:25:09.773Z,15.46
2023-06-17T04:27:37.748Z,15.58
2023-06-17T04:30:09.646Z,16.12
2023-06-17T04:32:40.003Z,17.10
2023-06-17T04:35:10.151Z,18.55
2023-06-17T04:37:37.908Z,20.09
2023-06-17T04:40:07.922Z,21.48
2023-06-17T04:42:35.616Z,22.61
2023-06-17T04:45:03.764Z,23.90
2023-06-17T04:47:32.660Z,24.98
2023-06-17T04:50:00.239Z,25.78
2023-06-17T04:52:30.810Z,26.35
2023-06-17T04:54:58.314Z,26.80
2023-06-17T04:57:25.848Z,27.07
2023-06-17T04:59:53.359Z,27.04
2023-06-17T05:02:20.973Z,26.97
2023-06-17T05:04:49.838Z,27.06
2023-06-17T05:07:17.413Z,27.45
2023-06-17T05:09:45.026Z,27.81
2023-06-17T05:12:12.672Z,28.46
2023-06-17T05:14:40.835Z,28.98
2023-06-17T05:17:08.555Z,29.13
2023-06-17T05:19:36.134Z,29.83
2023-06-17T05:22:05.049Z,30.60
2023-06-17T05:24:32.684Z,31.41
2023-06-17T05:27:00.195Z,32.33
2023-06-17T05:29:27.702Z,33.17
2023-06-17T05:31:55.214Z,34.04
2023-06-17T05:34:22.750Z,34.35
2023-06-17T05:36:50.274Z,34.92
2023-06-17T05:39:19.178Z,35.45
2023-06-17T05:41:46.740Z,35.68
2023-06-17T05:44:14.296Z,35.72
2023-06-17T05:46:41.891Z,35.82
2023-06-17T05:49:09.516Z,35.65
2023-06-17T05:51:37.052Z,35.86
2023-06-17T05:54:04.714Z,35.99
2023-06-17T05:56:33.552Z,35.33
2023-06-17T05:59:01.122Z,34.42
2023-06-17T06:01:28.735Z,33.81
2023-06-17T06:03:57.049Z,33.18
2023-06-17T06:06:24.650Z,31.90
2023-06-17T06:08:52.760Z,30.60
2023-06-17T06:11:20.308Z,29.80
2023-06-17T06:13:49.166Z,29.55
2023-06-17T06:16:17.036Z,30.37
2023-06-17T06:18:44.618Z,30.99
2023-06-17T06:21:12.122Z,31.34
2023-06-17T06:23:39.730Z,31.68
2023-06-17T06:26:07.268Z,32.60
2023-06-17T06:28:34.780Z,33.60
2023-06-17T06:31:04.074Z,33.86
2023-06-17T06:33:31.593Z,33.49
2023-06-17T06:35:59.125Z,33.01
2023-06-17T06:38:26.643Z,33.08
2023-06-17T06:40:54.139Z,33.03
2023-06-17T06:43:21.687Z,33.55
2023-06-17T06:45:49.556Z,34.38
2023-06-17T06:48:18.559Z,35.10
2023-06-17T06:50:46.055Z,35.70
2023-06-17T06:53:13.619Z,36.66
2023-06-17T06:55:41.187Z,37.77
2023-06-17T06:58:08.718Z,38.84
2023-06-17T07:00:36.236Z,40.05
2023-06-17T07:03:03.840Z,40.65
2023-06-17T07:05:32.832Z,40.28
2023-06-17T07:08:01.881Z,40.21
2023-06-17T07:10:29.400Z,40.14
2023-06-17T07:12:57.209Z,38.33
2023-06-17T07:15:24.777Z,39.05
2023-06-17T07:17:52.457Z,39.80
2023-06-17T07:20:20.149Z,39.21
2023-06-17T07:22:49.316Z,34.40
2023-06-17T07:25:17.191Z,35.90
2023-06-17T07:27:44.736Z,34.02
2023-06-17T07:30:13.508Z,31.49
2023-06-17T07:32:41.082Z,30.75
2023-06-17T07:35:09.323Z,29.16
2023-06-17T07:37:36.933Z,30.27
2023-06-17T07:40:07.558Z,30.65
2023-06-17T07:42:35.113Z,28.58
2023-06-17T07:45:02.665Z,28.63
2023-06-17T07:47:30.255Z,28.85
2023-06-17T07:49:57.873Z,26.37
2023-06-17T07:52:25.453Z,27.32
2023-06-17T07:54:53.867Z,30.19
2023-06-17T07:57:22.705Z,31.49
2023-06-17T07:59:50.266Z,32.50
2023-06-17T08:02:18.742Z,30.76
2023-06-17T08:04:46.426Z,30.46
2023-06-17T08:07:14.158Z,32.53
2023-06-17T08:09:41.709Z,30.47
2023-06-17T08:12:10.035Z,30.86
2023-06-17T08:14:38.893Z,31.90
2023-06-17T08:17:07.270Z,30.58
2023-06-17T08:19:35.192Z,26.49
2023-06-17T08:22:02.721Z,28.24
2023-06-17T08:24:30.328Z,28.34
2023-06-17T08:26:57.936Z,27.58
2023-06-17T08:29:26.289Z,27.63
2023-06-17T08:31:55.501Z,26.46
2023-06-17T08:34:23.561Z,27.56
2023-06-17T08:36:53.947Z,27.58
2023-06-17T08:39:21.668Z,28.03
2023-06-17T08:41:49.560Z,27.86
2023-06-17T08:44:17.864Z,28.46
2023-06-17T08:46:46.687Z,26.41
2023-06-17T08:49:15.812Z,27.00
2023-06-17T08:51:44.934Z,27.60
2023-06-17T08:54:12.644Z,26.77
2023-06-17T08:56:40.524Z,26.69
2023-06-17T08:59:08.103Z,28.37
2023-06-17T09:01:37.415Z,29.28
2023-06-17T09:04:05.527Z,27.49
2023-06-17T09:06:34.368Z,26.78
2023-06-17T09:09:01.889Z,28.08
2023-06-17T09:11:32.009Z,28.25
2023-06-17T09:14:00.980Z,29.03
2023-06-17T09:16:29.709Z,28.18
2023-06-17T09:18:57.454Z,25.69
2023-06-17T09:21:26.258Z,25.67
2023-06-17T09:23:56.602Z,26.00
2023-06-17T09:26:30.408Z,25.47
2023-06-17T09:29:03.806Z,26.48
2023-06-17T09:31:31.772Z,26.48
2023-06-17T09:33:59.945Z,24.94
2023-06-17T09:36:27.587Z,25.07
2023-06-17T09:38:56.498Z,26.62
2023-06-17T09:41:24.849Z,26.80
2023-06-17T09:43:53.661Z,25.69
2023-06-17T09:46:30.818Z,25.30
2023-06-17T09:48:59.344Z,23.69
2023-06-17T09:51:27.432Z,24.88
2023-06-17T09:53:56.700Z,25.44
2023-06-17T09:56:26.120Z,25.78
2023-06-17T09:58:57.442Z,25.21
2023-06-17T10:01:30.222Z,24.41
2023-06-17T10:03:57.924Z,23.71
2023-06-17T10:06:28.186Z,25.23
2023-06-17T10:08:57.857Z,26.05
2023-06-17T10:11:26.979Z,26.17
2023-06-17T10:13:58.641Z,26.28
2023-06-17T10:16:29.254Z,26.82
2023-06-17T10:19:01.096Z,26.04
2023-06-17T10:21:30.843Z,27.24
2023-06-17T10:24:02.175Z,27.30
2023-06-17T10:26:32.052Z,25.01
2023-06-17T10:29:01.812Z,23.67
2023-06-17T10:31:31.173Z,24.36
2023-06-17T10:34:01.985Z,24.96
2023-06-17T10:36:29.712Z,24.39
2023-06-17T10:38:59.426Z,23.85
2023-06-17T10:41:56.966Z,23.34
2023-06-17T10:44:29.263Z,23.81
2023-06-17T10:46:57.840Z,25.49
2023-06-17T10:49:26.074Z,26.67
2023-06-17T10:51:58.956Z,27.57
2023-06-17T10:54:32.735Z,28.44
2023-06-17T10:57:02.793Z,28.15
2023-06-17T10:59:33.193Z,27.25
2023-06-17T11:02:02.381Z,26.51
2023-06-17T11:04:31.702Z,26.56
2023-06-17T11:06:59.735Z,25.98
2023-06-17T11:09:27.593Z,26.33
2023-06-17T11:11:57.158Z,26.55
2023-06-17T11:14:25.797Z,25.40
2023-06-17T11:16:53.586Z,26.01
2023-06-17T11:19:21.263Z,26.60
2023-06-17T11:21:52.022Z,27.09
2023-06-17T11:24:19.862Z,25.86
2023-06-17T11:26:47.399Z,24.10
2023-06-17T11:29:16.669Z,23.93
2023-06-17T11:31:44.990Z,24.11
2023-06-17T11:34:13.901Z,24.10
2023-06-17T11:36:41.600Z,25.03
2023-06-17T11:39:10.239Z,26.43
2023-06-17T11:41:38.364Z,27.26
2023-06-17T11:44:06.653Z,26.98
2023-06-17T11:46:38.389Z,27.23
2023-06-17T11:49:07.319Z,28.08
2023-06-17T11:51:34.813Z,29.21
2023-06-17T11:54:06.354Z,29.24
2023-06-17T11:56:34.411Z,29.61
2023-06-17T11:59:03.919Z,27.93
2023-06-17T12:01:31.553Z,28.26
2023-06-17T12:04:00.619Z,27.74
2023-06-17T12:06:29.086Z,26.69
2023-06-17T12:08:57.927Z,25.23
2023-06-17T12:11:29.327Z,25.84
2023-06-17T12:13:57.404Z,26.50
2023-06-17T12:16:25.782Z,25.74
2023-06-17T12:18:53.892Z,26.07
2023-06-17T12:21:23.457Z,26.77
2023-06-17T12:23:52.075Z,27.62
2023-06-17T12:26:20.228Z,27.90
2023-06-17T12:28:47.793Z,27.52
2023-06-17T12:31:15.643Z,27.64
2023-06-17T12:33:43.189Z,27.88
2023-06-17T12:36:10.835Z,29.25
2023-06-17T12:38:40.621Z,29.70
2023-06-17T12:41:08.727Z,28.35
2023-06-17T12:43:36.531Z,26.89
2023-06-17T12:46:04.156Z,26.53
2023-06-17T12:48:34.682Z,25.34
2023-06-17T12:51:02.384Z,26.10
2023-06-17T12:53:30.262Z,26.85
2023-06-17T12:55:59.725Z,27.95
2023-06-17T12:58:28.033Z,27.40
2023-06-17T13:00:56.779Z,27.73
2023-06-17T13:03:24.305Z,27.29
2023-06-17T13:05:52.826Z,27.38
2023-06-17T13:08:20.528Z,28.58
2023-06-17T13:10:48.124Z,28.55
2023-06-17T13:13:17.018Z,28.06
2023-06-17T13:15:44.811Z,27.09
2023-06-17T13:18:13.830Z,25.82
2023-06-17T13:20:41.527Z,26.00
2023-06-17T13:23:09.093Z,26.47
2023-06-17T13:25:36.795Z,25.97
2023-06-17T13:28:04.354Z,25.13
2023-06-17T13:30:34.304Z,24.70
2023-06-17T13:33:02.489Z,25.31
2023-06-17T13:35:30.059Z,26.20
2023-06-17T13:37:59.565Z,26.05
2023-06-17T13:40:27.152Z,26.36
2023-06-17T13:42:54.674Z,26.64
2023-06-17T13:45:22.377Z,26.36
2023-06-17T13:47:51.824Z,25.58
2023-06-17T13:50:19.681Z,25.76
2023-06-17T13:52:47.540Z,25.92
2023-06-17T13:55:15.066Z,26.80
2023-06-17T13:57:42.606Z,27.00
2023-06-17T14:00:10.740Z,26.91
2023-06-17T14:02:38.393Z,25.35
2023-06-17T14:05:08.551Z,24.73
2023-06-17T14:07:36.066Z,25.60
2023-06-17T14:10:03.969Z,26.73
2023-06-17T14:12:32.010Z,26.86
2023-06-17T14:14:59.523Z,25.81
2023-06-17T14:17:27.346Z,25.77
2023-06-17T14:19:54.939Z,25.78
2023-06-17T14:22:24.086Z,26.91
2023-06-17T14:24:51.621Z,27.20
2023-06-17T14:27:40.732Z,27.18
2023-06-17T14:30:11.781Z,27.62
2023-06-17T14:32:39.468Z,28.03
2023-06-17T14:35:08.018Z,28.01
2023-06-17T14:37:37.618Z,28.27
2023-06-17T14:40:05.801Z,27.76
2023-06-17T14:42:33.980Z,27.53
2023-06-17T14:45:01.525Z,27.90
2023-06-17T14:47:29.388Z,28.37
2023-06-17T14:49:57.054Z,27.46
2023-06-17T14:52:26.891Z,27.13
2023-06-17T14:54:56.058Z,27.16
2023-06-17T14:57:23.960Z,27.48
2023-06-17T14:59:51.600Z,27.06
2023-06-17T15:02:27.476Z,26.95
2023-06-17T15:04:55.040Z,27.10
2023-06-17T15:07:22.577Z,27.54
2023-06-17T15:09:50.081Z,28.01
2023-06-17T15:12:18.939Z,27.24
2023-06-17T15:14:49.375Z,26.94
2023-06-17T15:17:17.088Z,26.89
2023-06-17T15:19:45.258Z,26.70
2023-06-17T15:22:13.138Z,27.22
2023-06-17T15:24:40.772Z,27.49
2023-06-17T15:27:08.422Z,27.39
2023-06-17T15:29:37.288Z,26.76
2023-06-17T15:32:05.553Z,27.49
2023-06-17T15:34:33.066Z,26.97
2023-06-17T15:37:00.563Z,26.07
2023-06-17T15:39:29.580Z,26.13
2023-06-17T15:41:57.092Z,25.82
2023-06-17T15:44:24.696Z,25.69
2023-06-17T15:46:53.618Z,25.74
2023-06-17T15:49:21.159Z,26.06
2023-06-17T15:51:48.909Z,26.39
2023-06-17T15:54:16.470Z,26.69
2023-06-17T15:56:47.151Z,26.22
2023-06-17T15:59:14.964Z,25.84
2023-06-17T16:01:42.567Z,25.99
2023-06-17T16:04:41.887Z,26.16
2023-06-17T16:07:10.918Z,26.25
2023-06-17T16:09:40.173Z,26.13
2023-06-17T16:12:08.734Z,25.87
2023-06-17T16:14:36.784Z,25.62
2023-06-17T16:17:06.931Z,25.15
2023-06-17T16:19:36.879Z,25.31
2023-06-17T16:22:08.427Z,25.59
2023-06-17T16:24:36.000Z,25.14
2023-06-17T16:27:04.021Z,25.09
2023-06-17T16:29:32.059Z,25.42
2023-06-17T16:31:59.652Z,25.76
2023-06-17T16:34:27.217Z,26.56
2023-06-17T16:36:56.079Z,26.80
2023-06-17T16:39:23.653Z,27.38
2023-06-17T16:41:51.214Z,26.37
2023-06-17T16:44:19.195Z,26.31
2023-06-17T16:46:47.721Z,26.00
2023-06-17T16:49:15.321Z,26.05
2023-06-17T16:51:42.845Z,25.42
2023-06-17T16:54:11.956Z,25.27
2023-06-17T16:56:39.833Z,24.95
2023-06-17T16:59:07.403Z,25.47
2023-06-17T17:01:35.068Z,25.89
2023-06-17T17:04:09.524Z,25.74
2023-06-17T17:06:37.087Z,25.99
2023-06-17T17:09:04.839Z,26.05
2023-06-17T17:11:33.919Z,26.10
2023-06-17T17:14:01.711Z,26.41
2023-06-17T17:16:29.600Z,25.96
2023-06-17T17:18:57.203Z,25.79
2023-06-17T17:21:25.027Z,26.01
2023-06-17T17:23:52.669Z,25.86
2023-06-17T17:26:20.197Z,25.72
2023-06-17T17:28:49.069Z,25.57
2023-06-17T17:31:16.585Z,25.84
2023-06-17T17:33:45.114Z,26.01
2023-06-17T17:36:13.008Z,26.26
2023-06-17T17:38:40.859Z,26.60
2023-06-17T17:41:08.376Z,26.88
2023-06-17T17:43:37.114Z,26.62
2023-06-17T17:46:07.339Z,25.71
2023-06-17T17:48:35.759Z,25.67
2023-06-17T17:51:03.470Z,25.69
2023-06-17T17:53:31.852Z,25.48
2023-06-17T17:55:59.466Z,25.36
2023-06-17T17:58:27.006Z,25.50
2023-06-17T18:00:56.612Z,25.64
2023-06-17T18:03:25.621Z,25.42
2023-06-17T18:05:53.370Z,25.18
2023-06-17T18:08:20.899Z,24.71
2023-06-17T18:10:48.420Z,24.66
2023-06-17T18:13:15.942Z,24.69
2023-06-17T18:15:43.467Z,24.85
2023-06-17T18:18:10.998Z,24.85
2023-06-17T18:20:39.919Z,24.72
2023-06-17T18:23:08.199Z,24.70
2023-06-17T18:25:35.731Z,24.85
2023-06-17T18:28:03.247Z,25.01
2023-06-17T18:30:31.428Z,25.10
2023-06-17T18:32:59.000Z,24.90
2023-06-17T18:35:26.574Z,24.71
2023-06-17T18:37:55.418Z,24.75
2023-06-17T18:40:23.175Z,24.66
2023-06-17T18:42:50.943Z,24.43
2023-06-17T18:45:18.776Z,24.41
2023-06-17T18:47:46.342Z,24.48
2023-06-17T18:50:13.839Z,24.35
2023-06-17T18:52:41.357Z,24.57
2023-06-17T18:55:10.800Z,24.60
2023-06-17T18:57:38.411Z,24.91
2023-06-17T19:00:07.328Z,24.99
2023-06-17T19:02:35.052Z,24.93
2023-06-17T19:05:05.669Z,24.69
2023-06-17T19:07:33.745Z,24.45
2023-06-17T19:10:01.874Z,24.23
2023-06-17T19:12:31.785Z,23.95
2023-06-17T19:14:59.662Z,23.69
2023-06-17T19:17:27.483Z,23.39
2023-06-17T19:19:55.056Z,23.16
2023-06-17T19:22:22.612Z,22.92
2023-06-17T19:24:50.222Z,22.70
2023-06-17T19:27:17.746Z,22.51
2023-06-17T19:29:46.668Z,22.29
2023-06-17T19:32:14.232Z,22.16
2023-06-17T19:34:41.868Z,21.94
2023-06-17T19:37:09.432Z,21.80
2023-06-17T19:39:36.955Z,21.68
2023-06-17T19:42:04.928Z,21.56
2023-06-17T19:44:34.472Z,21.32
2023-06-17T19:47:03.377Z,21.16
2023-06-17T19:49:31.202Z,21.02
2023-06-17T19:51:58.727Z,20.95
2023-06-17T19:54:26.224Z,20.85
2023-06-17T19:56:53.911Z,20.66
2023-06-17T19:59:21.736Z,20.43
2023-06-17T20:01:49.349Z,20.36
2023-06-17T20:04:18.391Z,20.25
2023-06-17T20:06:46.026Z,20.20
2023-06-17T20:09:13.590Z,20.11
2023-06-17T20:11:41.128Z,19.98
2023-06-17T20:14:08.700Z,19.84
2023-06-17T20:16:37.080Z,19.64
2023-06-17T20:19:04.611Z,19.53
2023-06-17T20:21:33.459Z,19.52
2023-06-17T20:24:01.044Z,19.45
2023-06-17T20:26:29.878Z,19.36
2023-06-17T20:28:57.413Z,19.32
2023-06-17T20:31:24.987Z,19.25
2023-06-17T20:33:52.508Z,19.12
2023-06-17T20:36:20.070Z,19.20
2023-06-17T20:38:48.911Z,19.15
2023-06-17T20:41:16.524Z,19.04
2023-06-17T20:43:44.134Z,18.94
2023-06-17T20:46:12.091Z,18.87
2023-06-17T20:48:39.645Z,18.73
2023-06-17T20:51:09.668Z,18.64
2023-06-17T20:53:37.276Z,18.61
2023-06-17T20:56:06.340Z,18.57
2023-06-17T20:58:33.976Z,18.54
2023-06-17T21:01:01.550Z,18.51
2023-06-17T21:03:29.122Z,18.47
2023-06-17T21:05:56.885Z,18.38
2023-06-17T21:08:24.455Z,18.37
2023-06-17T21:10:51.991Z,18.27
2023-06-17T21:13:20.878Z,18.15
2023-06-17T21:15:48.403Z,18.00
2023-06-17T21:18:16.031Z,17.87
2023-06-17T21:20:43.552Z,17.74
2023-06-17T21:23:11.072Z,17.53
2023-06-17T21:25:38.626Z,17.61
2023-06-17T21:28:06.194Z,17.60
2023-06-17T21:30:35.083Z,17.52
2023-06-17T21:33:02.638Z,17.52
2023-06-17T21:35:30.238Z,17.51
2023-06-17T21:37:59.174Z,17.43
2023-06-17T21:40:26.818Z,17.37
2023-06-17T21:42:54.370Z,17.28
2023-06-17T21:45:22.474Z,17.27
2023-06-17T21:47:51.397Z,17.16
2023-06-17T21:50:19.259Z,17.05
2023-06-17T21:52:46.912Z,16.98
2023-06-17T21:55:14.491Z,16.90
2023-06-17T21:57:42.067Z,16.81
2023-06-17T22:00:10.570Z,16.78
2023-06-17T22:02:38.171Z,16.72
2023-06-17T22:05:07.774Z,16.71
2023-06-17T22:07:35.436Z,16.73
2023-06-17T22:10:03.134Z,16.71
2023-06-17T22:12:31.414Z,16.73
2023-06-17T22:15:00.170Z,16.66
2023-06-17T22:17:28.913Z,16.64
2023-06-17T22:19:56.447Z,16.61
2023-06-17T22:22:25.356Z,16.59
2023-06-17T22:24:52.856Z,16.51
2023-06-17T22:27:20.526Z,16.41
2023-06-17T22:29:48.101Z,16.33
2023-06-17T22:32:15.737Z,16.24
2023-06-17T22:34:43.244Z,16.20
2023-06-17T22:37:10.806Z,16.12
2023-06-17T22:39:39.676Z,16.10
2023-06-17T22:42:08.427Z,16.10
2023-06-17T22:44:35.980Z,16.11
2023-06-17T22:47:03.582Z,16.09
2023-06-17T22:49:32.302Z,15.94
2023-06-17T22:51:59.845Z,15.83
2023-06-17T22:54:27.359Z,15.96
2023-06-17T22:56:56.535Z,16.05
2023-06-17T22:59:24.381Z,15.94
2023-06-17T23:01:52.006Z,15.84
2023-06-17T23:04:19.530Z,15.80
2023-06-17T23:06:47.107Z,15.69
2023-06-17T23:09:14.614Z,15.75
2023-06-17T23:11:42.158Z,15.46
2023-06-17T23:14:11.060Z,15.52
2023-06-17T23:16:38.808Z,15.51
2023-06-17T23:19:06.368Z,15.50
2023-06-17T23:21:35.209Z,15.48
2023-06-17T23:24:03.199Z,15.39
2023-06-17T23:26:30.845Z,15.39
2023-06-17T23:28:58.699Z,15.45
2023-06-17T23:31:27.667Z,15.54
2023-06-17T23:33:55.419Z,15.53
2023-06-17T23:36:24.084Z,15.47
2023-06-17T23:38:52.724Z,15.40
2023-06-17T23:41:20.312Z,15.41
2023-06-17T23:43:47.833Z,15.35
2023-06-17T23:46:16.797Z,15.19
2023-06-17T23:48:45.743Z,15.07
2023-06-17T23:51:13.310Z,14.69
2023-06-17T23:53:40.857Z,15.07
2023-06-17T23:56:08.378Z,14.95
2023-06-17T23:58:35.935Z,15.10
